Language: 


Des rapports , des résumés tant et plus, au choix de chacun....


Données statistiques de la station
Quotidien Rapport Janvier 7, 2017 Unités:  Anglais    Métrique   les deux
« Précédent Jour
Suivant Jour »
Quotidien Hebdomadaire Mensuel Annuel Actuel
  Haut: Bas: Moyen:
Température: 39.2 °F 31.3 °F 35.6 °F
Pt de rosée: 38.7 °F 26.1 °F 34.3 °F
Humidité: 98 % 0 % 95 %
Vitesse du vent: 8.7 mph 0 mph 2.6 mph
Rafales: 19.9 mph - -
Vent:- - SSW
Pression: 32.1 in 0 in -
Précipitation: 0 in    
Historical Graphs
 
 
Données statistiques pour Janvier 7, 2017
Heure Température Point de rosée Pression Vent Vitesse du vent Refales Humidité Pluie (taux horaire)
00:00 31.3 °F 26.1 °F 30.5 in WSW 8.5 mph 19.9 mph 81 % 0 in
00:10 31.3 °F 26.1 °F 32.1 in SSW 4.5 mph 8.7 mph 81 % 0 in
00:20 31.3 °F 26.1 °F 30.5 in SW 7.2 mph 8.7 mph 81 % 0 in
00:30 31.3 °F 26.1 °F 30.6 in SSW 3.8 mph 19.5 mph 81 % 0 in
00:40 31.3 °F 26.1 °F 30.6 in South 5.8 mph 6.5 mph 81 % 0 in
00:50 31.3 °F 26.1 °F 30.6 in South 4.9 mph 6.5 mph 81 % 0 in
01:00 31.3 °F 26.1 °F 30.6 in SSW 4 mph 7.4 mph 81 % 0 in
01:10 31.3 °F 26.1 °F 30.6 in SSW 3.1 mph 5.8 mph 81 % 0 in
01:20 31.3 °F 26.1 °F 30.6 in South 2.7 mph 7.4 mph 81 % 0 in
01:30 31.3 °F 26.1 °F 30.6 in South 4.9 mph 6.3 mph 81 % 0 in
01:40 31.3 °F 26.1 °F 30.5 in South 6 mph 7.4 mph 81 % 0 in
01:50 31.3 °F 26.1 °F 30.5 in SSW 4.3 mph 7.8 mph 81 % 0 in
02:00 31.3 °F 26.1 °F 30.5 in SSW 3.1 mph 7.8 mph 81 % 0 in
09:00 33.3 °F 29.5 °F 30.4 in South 3.1 mph 6.5 mph 86 % 0 in
09:10 33.3 °F 29.5 °F 30.4 in South 3.8 mph 9.6 mph 86 % 0 in
09:14 33.3 °F 29.5 °F 30.4 in SSW 4.9 mph 9.6 mph 86 % 0 in
09:20 33.3 °F 29.8 °F 30.4 in SW 5.6 mph 8.7 mph 87 % 0 in
09:24 33.3 °F 29.8 °F 30.4 in SSW 5.4 mph 8.5 mph 87 % 0 in
09:30 33.4 °F 30 °F 30.4 in South 2.9 mph 7.4 mph 87 % 0 in
09:34 33.4 °F 30.2 °F 30.4 in SSW 5.6 mph 7.4 mph 88 % 0 in
09:40 33.6 °F 30.4 °F 30.4 in WSW 4 mph 7.2 mph 88 % 0 in
09:45 33.6 °F 30.7 °F 30.4 in SSW 4.9 mph 6.7 mph 89 % 0 in
09:50 33.6 °F 30.7 °F 30.4 in SSW 4 mph 7.6 mph 89 % 0 in
09:55 33.6 °F 30.7 °F 30.4 in SSW 3.8 mph 7.6 mph 89 % 0 in
10:00 33.6 °F 30.7 °F 30.4 in SSW 6.3 mph 7.2 mph 89 % 0 in
10:05 33.6 °F 30.9 °F 30.4 in WSW 5.6 mph 8.9 mph 90 % 0 in
10:10 33.8 °F 31.1 °F 30.4 in SSW 7.4 mph 8.9 mph 90 % 0 in
10:15 33.8 °F 31.1 °F 30.4 in SW 4.3 mph 8.5 mph 90 % 0 in
10:20 33.8 °F 31.1 °F 30.4 in South 3.6 mph 7.8 mph 90 % 0 in
10:25 33.8 °F 31.5 °F 30.4 in SSW 4.3 mph 7.4 mph 91 % 0 in
10:30 33.8 °F 31.5 °F 30.4 in South 8.5 mph 8.5 mph 91 % 0 in
10:35 33.6 °F 31.5 °F 30.4 in SSW 4 mph 9.6 mph 92 % 0 in
10:40 33.6 °F 31.5 °F 30.4 in South 5.4 mph 9.6 mph 92 % 0 in
10:45 33.6 °F 31.5 °F 30.4 in South 6 mph 8.5 mph 92 % 0 in
10:50 33.6 °F 31.8 °F 30.4 in SSW 6 mph 10.1 mph 93 % 0 in
10:55 33.6 °F 31.8 °F 30.4 in South 6 mph 10.1 mph 93 % 0 in
11:00 33.6 °F 31.8 °F 30.4 in SSW 4.5 mph 8.5 mph 93 % 0 in
11:05 33.6 °F 31.8 °F 30.4 in South 5.4 mph 8.5 mph 93 % 0 in
11:10 33.6 °F 32 °F 30.4 in South 4.3 mph 7.8 mph 94 % 0 in
11:15 33.6 °F 32 °F 30.4 in SW 4 mph 7.6 mph 94 % 0 in
11:20 33.6 °F 32 °F 30.4 in SW 6.3 mph 7.6 mph 94 % 0 in
11:25 33.6 °F 32 °F 30.4 in SSW 6 mph 7.6 mph 94 % 0 in
11:30 33.6 °F 32 °F 30.4 in WSW 4.9 mph 7.8 mph 94 % 0 in
11:35 33.8 °F 32.2 °F 30.4 in SSW 5.6 mph 7.8 mph 94 % 0 in
11:40 33.8 °F 32.5 °F 30.4 in South 4.3 mph 7.6 mph 95 % 0 in
11:45 33.8 °F 32.5 °F 30.4 in SSW 5.8 mph 8.5 mph 95 % 0 in
11:50 34 °F 32.7 °F 30.4 in SSW 4 mph 8.5 mph 95 % 0 in
11:55 34 °F 32.7 °F 30.4 in SW 8.7 mph 8.7 mph 95 % 0 in
12:00 34.2 °F 33.1 °F 30.4 in South 4 mph 8.7 mph 96 % 0 in
12:05 34.2 °F 33.1 °F 30.4 in South 4.3 mph 7.8 mph 96 % 0 in
12:10 34.3 °F 33.3 °F 30.4 in SSW 4.3 mph 7.8 mph 96 % 0 in
12:15 34.3 °F 33.3 °F 30.4 in WSW 8.5 mph 8.7 mph 96 % 0 in
12:20 34.3 °F 33.3 °F 30.4 in SSW 6 mph 8.7 mph 96 % 0 in
12:25 34.5 °F 33.4 °F 30.4 in SSW 6 mph 7.2 mph 96 % 0 in
12:30 34.5 °F 33.4 °F 30.4 in SSW 4 mph 7.2 mph 96 % 0 in
12:35 34.5 °F 33.6 °F 30.4 in WSW 4.9 mph 7.2 mph 97 % 0 in
12:40 34.5 °F 34 °F 30.4 in SSW 2.9 mph 7.4 mph 97 % 0 in
12:45 34.5 °F 34 °F 30.4 in SSW 5.4 mph 7.4 mph 97 % 0 in
12:46 34.5 °F 34 °F 30.4 in SW 4.5 mph 6.3 mph 97 % 0 in
12:51 34.5 °F 34 °F 30.4 in SSW 4.3 mph 6.3 mph 97 % 0 in
12:56 34.9 °F 34.2 °F 30.4 in SSW 3.8 mph 6.5 mph 97 % 0 in
13:01 34.9 °F 34.2 °F 30.4 in SW 5.8 mph 7.6 mph 97 % 0 in
13:06 35.1 °F 34.2 °F 30.4 in SSW 6 mph 7.6 mph 97 % 0 in
13:11 35.1 °F 34.2 °F 30.4 in SSW 7.8 mph 7.8 mph 97 % 0 in
13:16 35.1 °F 34.2 °F 30.4 in SSW 6 mph 7.8 mph 97 % 0 in
13:21 35.1 °F 34.2 °F 30.4 in SW 4.5 mph 7.6 mph 97 % 0 in
13:26 35.1 °F 34.2 °F 30.4 in SSW 7.2 mph 7.4 mph 97 % 0 in
13:31 35.1 °F 34.2 °F 30.4 in South 6.3 mph 7.2 mph 97 % 0 in
13:36 35.1 °F 34.5 °F 30.4 in WSW 4.3 mph 6.3 mph 98 % 0 in
13:41 35.1 °F 34.5 °F 30.4 in South 5.6 mph 6.5 mph 98 % 0 in
13:46 35.2 °F 34.7 °F 30.4 in SSW 4 mph 6.5 mph 98 % 0 in
13:51 35.2 °F 34.7 °F 30.4 in SW 4.3 mph 6.5 mph 98 % 0 in
13:56 35.2 °F 34.7 °F 30.4 in WSW 4 mph 6.5 mph 98 % 0 in
14:01 35.2 °F 34.7 °F 30.4 in SSW 3.1 mph 5.8 mph 98 % 0 in
14:06 35.4 °F 34.9 °F 30.4 in SSW 3.4 mph 5.8 mph 98 % 0 in
14:11 35.4 °F 34.9 °F 30.4 in SSW 3.8 mph 5.6 mph 98 % 0 in
14:16 35.4 °F 35.1 °F 30.4 in SSW 3.8 mph 5.6 mph 98 % 0 in
14:21 35.4 °F 35.1 °F 30.4 in SW 3.6 mph 4.7 mph 98 % 0 in
14:26 35.8 °F 35.2 °F 30.4 in SW 3.6 mph 4.7 mph 98 % 0 in
14:31 36 °F 35.4 °F 30.4 in SSW 3.6 mph 4.7 mph 98 % 0 in
14:36 36 °F 35.4 °F 30.4 in SW 2.9 mph 4.7 mph 98 % 0 in
14:41 36.1 °F 35.4 °F 30.4 in SSW 4.9 mph 5.6 mph 98 % 0 in
14:46 36.1 °F 35.4 °F 30.4 in SSW 2.7 mph 5.8 mph 98 % 0 in
14:51 36.1 °F 35.8 °F 30.4 in SSW 4 mph 5.8 mph 98 % 0 in
14:56 36.1 °F 35.8 °F 30.4 in SSW 2.5 mph 4.3 mph 98 % 0 in
15:01 36.1 °F 35.8 °F 30.4 in South 3.6 mph 4.3 mph 98 % 0 in
15:06 36.1 °F 35.8 °F 30.4 in SSW 1.3 mph 6.5 mph 98 % 0 in
15:11 36.3 °F 36 °F 30.4 in SSW 3.6 mph 6.5 mph 98 % 0 in
15:16 36.3 °F 36 °F 30.4 in SSW 2.9 mph 4.7 mph 98 % 0 in
15:21 36.3 °F 36 °F 30.4 in SSW 3.6 mph 4.3 mph 98 % 0 in
15:27 36.3 °F 36 °F 30.4 in SW 4.3 mph 4.5 mph 98 % 0 in
15:31 36.1 °F 35.8 °F 30.4 in South 2.7 mph 4.5 mph 98 % 0 in
15:41 36.1 °F 35.8 °F 30.4 in SSW 3.8 mph 5.6 mph 98 % 0 in
15:47 36.3 °F 36 °F 30.4 in SSW 3.8 mph 5.6 mph 98 % 0 in
15:52 36.3 °F 36 °F 30.4 in SW 4.3 mph 5.8 mph 98 % 0 in
15:56 36.3 °F 36 °F 30.4 in SW 3.8 mph 5.8 mph 98 % 0 in
16:07 36.1 °F 35.8 °F 30.4 in SW 3.6 mph 5.6 mph 98 % 0 in
16:12 36.1 °F 35.8 °F 30.4 in WSW 3.8 mph 5.6 mph 98 % 0 in
16:17 36.1 °F 35.8 °F 30.4 in SW 3.4 mph 5.4 mph 98 % 0 in
16:22 36.1 °F 35.8 °F 30.4 in SSW 2.7 mph 5.6 mph 98 % 0 in
16:27 36.3 °F 36 °F 30.4 in SSW 5.6 mph 5.6 mph 98 % 0 in
16:31 36.3 °F 36 °F 30.4 in SW 3.4 mph 5.6 mph 98 % 0 in
16:37 36.3 °F 36 °F 30.4 in SW 3.1 mph 5.6 mph 98 % 0 in
16:42 36.3 °F 36 °F 30.4 in SSW 3.1 mph 4.5 mph 98 % 0 in
16:47 36.3 °F 36 °F 30.4 in Calm   4.5 mph 98 % 0 in
16:52 36.3 °F 36 °F 30.4 in SW 2 mph 4.5 mph 98 % 0 in
16:57 36.3 °F 36 °F 30.4 in South 3.1 mph 3.8 mph 98 % 0 in
17:02 36.3 °F 36 °F 30.4 in SSW 2 mph 3.6 mph 98 % 0 in
17:07 36.3 °F 36 °F 30.4 in SSW 3.4 mph 4.3 mph 98 % 0 in
17:12 36.3 °F 36 °F 30.4 in Calm   4.3 mph 98 % 0 in
17:17 36.3 °F 36 °F 30.4 in SSW 2.7 mph 3.1 mph 98 % 0 in
17:22 36.3 °F 36 °F 30.4 in Calm   3.4 mph 98 % 0 in
17:27 36.3 °F 36 °F 30.4 in Calm   3.4 mph 98 % 0 in
17:32 36.3 °F 36 °F 30.4 in Calm   2.9 mph 98 % 0 in
17:37 36.3 °F 36 °F 30.4 in SSW 3.6 mph 3.6 mph 98 % 0 in
17:42 36.3 °F 36 °F 30.4 in WSW 2 mph 3.6 mph 98 % 0 in
17:47 36.3 °F 36 °F 30.4 in Calm   3.1 mph 98 % 0 in
17:52 36.1 °F 35.8 °F 30.4 in Calm   3.1 mph 98 % 0 in
17:57 36.1 °F 35.8 °F 30.4 in Calm   2.2 mph 98 % 0 in
18:02 36.1 °F 35.8 °F 30.4 in SSW 2 mph 2.2 mph 98 % 0 in
18:07 36.1 °F 35.8 °F 30.4 in Calm   2.2 mph 98 % 0 in
18:12 36.1 °F 35.8 °F 30.4 in Calm     98 % 0 in
18:17 36.1 °F 35.8 °F 30.4 in Calm     98 % 0 in
18:22 36.1 °F 35.8 °F 30.4 in Calm     98 % 0 in
18:27 36.1 °F 35.8 °F 30.4 in Calm   2.2 mph 98 % 0 in
18:32 36.1 °F 35.8 °F 30.4 in Calm   2.2 mph 98 % 0 in
18:37 36.3 °F 36 °F 30.4 in Calm     98 % 0 in
18:42 36.3 °F 36 °F 30.4 in Calm     98 % 0 in
18:47 36.3 °F 36 °F 30.4 in Calm     98 % 0 in
18:52 36.1 °F 35.8 °F 30.4 in Calm     98 % 0 in
18:57 36.1 °F 35.8 °F 30.4 in Calm     98 % 0 in
19:02 36.1 °F 35.8 °F 30.4 in Calm     98 % 0 in
19:08 32 °F 35.8 °F 0 in Calm     0 % 0 in
19:13 36.1 °F 35.8 °F 30.4 in Calm     98 % 0 in
19:18 36.1 °F 35.8 °F 30.4 in West 1.1 mph 1.1 mph 98 % 0 in
19:23 36.1 °F 35.8 °F 30.4 in Calm   1.1 mph 98 % 0 in
19:28 36.3 °F 36 °F 30.4 in Calm     98 % 0 in
19:33 36.3 °F 36 °F 30.4 in Calm     98 % 0 in
19:38 36.7 °F 36.1 °F 30.4 in Calm     98 % 0 in
19:43 36.7 °F 36.1 °F 30.4 in Calm     98 % 0 in
19:48 36.7 °F 36.1 °F 30.4 in Calm     98 % 0 in
19:53 36.9 °F 36.3 °F 30.4 in Calm     98 % 0 in
19:58 36.9 °F 36.3 °F 30.4 in Calm     98 % 0 in
20:03 36.9 °F 36.3 °F 30.4 in Calm     98 % 0 in
20:08 36.9 °F 36.3 °F 30.4 in Calm     98 % 0 in
20:13 36.9 °F 36.3 °F 30.4 in Calm     98 % 0 in
20:18 36.9 °F 36.3 °F 30.4 in West 2.9 mph 3.4 mph 98 % 0 in
20:23 36.9 °F 36.3 °F 30.4 in Calm   3.4 mph 98 % 0 in
20:28 36.9 °F 36.3 °F 30.4 in Calm   3.4 mph 98 % 0 in
20:33 36.9 °F 36.3 °F 30.4 in Calm     98 % 0 in
20:38 36.9 °F 36.3 °F 30.4 in Calm   0.9 mph 98 % 0 in
20:43 36.9 °F 36.3 °F 30.4 in Calm   0.9 mph 98 % 0 in
20:48 36.9 °F 36.3 °F 30.4 in Calm     98 % 0 in
20:53 36.9 °F 36.3 °F 30.4 in Calm     98 % 0 in
20:58 36.9 °F 36.3 °F 30.4 in Calm     98 % 0 in
21:03 36.9 °F 36.3 °F 30.4 in Calm     98 % 0 in
21:08 37 °F 36.7 °F 30.4 in Calm     98 % 0 in
21:13 37.2 °F 36.9 °F 30.4 in Calm     98 % 0 in
21:18 37.2 °F 36.9 °F 30.4 in Calm     98 % 0 in
21:23 37.2 °F 36.9 °F 30.4 in Calm     98 % 0 in
21:28 37.2 °F 36.9 °F 30.4 in Calm     98 % 0 in
21:33 37.2 °F 36.9 °F 30.4 in Calm     98 % 0 in
21:38 37.2 °F 36.9 °F 30.4 in Calm     98 % 0 in
21:43 37.6 °F 37 °F 30.4 in Calm     98 % 0 in
21:48 37.6 °F 37 °F 30.4 in Calm     98 % 0 in
21:53 37.6 °F 37 °F 30.4 in Calm     98 % 0 in
21:58 37.6 °F 37 °F 30.4 in Calm     98 % 0 in
22:03 37.8 °F 37.2 °F 30.4 in Calm     98 % 0 in
22:08 37.8 °F 37.2 °F 30.4 in Calm     98 % 0 in
22:13 37.8 °F 37.2 °F 30.4 in Calm     98 % 0 in
22:18 37.9 °F 37.6 °F 30.4 in Calm     98 % 0 in
22:23 37.9 °F 37.6 °F 30.4 in Calm     98 % 0 in
22:28 37.9 °F 37.6 °F 30.4 in Calm     98 % 0 in
22:33 38.5 °F 37.8 °F 30.4 in Calm     98 % 0 in
22:38 38.5 °F 37.8 °F 30.4 in Calm     98 % 0 in
22:43 38.5 °F 37.8 °F 30.4 in Calm     98 % 0 in
22:48 38.5 °F 37.8 °F 30.4 in Calm     98 % 0 in
22:53 38.5 °F 37.8 °F 30.4 in Calm     98 % 0 in
22:58 38.5 °F 37.8 °F 30.4 in Calm     98 % 0 in
23:03 38.5 °F 37.8 °F 30.4 in Calm     98 % 0 in
23:04 38.5 °F 37.8 °F 30.4 in Calm     98 % 0 in
23:09 38.5 °F 37.8 °F 30.4 in Calm     98 % 0 in
23:14 38.5 °F 37.8 °F 30.4 in Calm     98 % 0 in
23:19 38.5 °F 37.9 °F 30.4 in Calm     98 % 0 in
23:24 38.5 °F 37.9 °F 30.4 in Calm     98 % 0 in
23:29 38.5 °F 37.9 °F 30.4 in Calm     98 % 0 in
23:34 38.5 °F 37.9 °F 30.4 in Calm     98 % 0 in
23:39 38.5 °F 37.9 °F 30.4 in Calm     98 % 0 in
23:44 38.7 °F 38.1 °F 30.4 in Calm   3.4 mph 98 % 0 in
23:49 38.8 °F 38.5 °F 30.4 in Calm   3.4 mph 98 % 0 in
23:54 39 °F 38.5 °F 30.4 in Calm     98 % 0 in
23:59 39.2 °F 38.7 °F 30.4 in NNE 1.1 mph 2.5 mph 98 % 0 in
Le Gheer Warneton
Courtoisie de Weather Underground - 1.75 mb

Mise a jour : 18/12/2017 23:28:11
Généré par Cumulus 1.9.4 (1099)